sensor_id;sensor_type;location;lat;lon;timestamp;P1;durP1;ratioP1;P2;durP2;ratioP2
39222;SDS011;24936;46.328;11.026;2024-03-02T00:01:53;15.93;;;7.72;;
39222;SDS011;24936;46.328;11.026;2024-03-02T00:04:19;17.20;;;8.18;;
39222;SDS011;24936;46.328;11.026;2024-03-02T00:06:44;11.48;;;8.77;;
39222;SDS011;24936;46.328;11.026;2024-03-02T00:09:10;13.70;;;8.65;;
39222;SDS011;24936;46.328;11.026;2024-03-02T00:11:39;15.20;;;9.77;;
39222;SDS011;24936;46.328;11.026;2024-03-02T00:14:05;11.40;;;8.85;;
39222;SDS011;24936;46.328;11.026;2024-03-02T00:16:31;13.32;;;8.85;;
39222;SDS011;24936;46.328;11.026;2024-03-02T00:19:00;12.25;;;9.00;;
39222;SDS011;24936;46.328;11.026;2024-03-02T00:21:27;13.52;;;9.52;;
39222;SDS011;24936;46.328;11.026;2024-03-02T00:23:54;15.55;;;8.93;;
39222;SDS011;24936;46.328;11.026;2024-03-02T00:26:20;17.88;;;9.50;;
39222;SDS011;24936;46.328;11.026;2024-03-02T00:28:46;11.70;;;9.25;;
39222;SDS011;24936;46.328;11.026;2024-03-02T00:31:12;16.73;;;10.05;;
39222;SDS011;24936;46.328;11.026;2024-03-02T00:33:42;14.75;;;8.38;;
39222;SDS011;24936;46.328;11.026;2024-03-02T00:36:08;11.65;;;8.70;;
39222;SDS011;24936;46.328;11.026;2024-03-02T00:38:35;11.95;;;8.07;;
39222;SDS011;24936;46.328;11.026;2024-03-02T00:41:11;13.20;;;8.15;;
39222;SDS011;24936;46.328;11.026;2024-03-02T00:43:43;9.02;;;6.85;;
39222;SDS011;24936;46.328;11.026;2024-03-02T00:46:11;9.23;;;7.63;;
39222;SDS011;24936;46.328;11.026;2024-03-02T00:48:38;8.30;;;6.72;;
39222;SDS011;24936;46.328;11.026;2024-03-02T00:51:04;9.73;;;6.80;;
39222;SDS011;24936;46.328;11.026;2024-03-02T00:53:31;11.23;;;8.05;;
39222;SDS011;24936;46.328;11.026;2024-03-02T00:55:57;13.65;;;7.20;;
39222;SDS011;24936;46.328;11.026;2024-03-02T00:58:24;13.98;;;6.55;;
39222;SDS011;24936;46.328;11.026;2024-03-02T01:00:50;8.02;;;6.28;;
39222;SDS011;24936;46.328;11.026;2024-03-02T01:03:15;6.00;;;5.38;;
39222;SDS011;24936;46.328;11.026;2024-03-02T01:05:41;7.20;;;6.20;;
39222;SDS011;24936;46.328;11.026;2024-03-02T01:08:07;8.98;;;5.15;;
39222;SDS011;24936;46.328;11.026;2024-03-02T01:10:33;7.47;;;5.57;;
39222;SDS011;24936;46.328;11.026;2024-03-02T01:12:58;6.10;;;5.50;;
39222;SDS011;24936;46.328;11.026;2024-03-02T01:15:24;9.07;;;5.50;;
39222;SDS011;24936;46.328;11.026;2024-03-02T01:17:49;4.63;;;4.22;;
39222;SDS011;24936;46.328;11.026;2024-03-02T01:20:15;11.18;;;4.93;;
39222;SDS011;24936;46.328;11.026;2024-03-02T01:22:40;7.47;;;4.25;;
39222;SDS011;24936;46.328;11.026;2024-03-02T01:25:06;10.38;;;4.28;;
39222;SDS011;24936;46.328;11.026;2024-03-02T01:27:33;5.82;;;3.10;;
39222;SDS011;24936;46.328;11.026;2024-03-02T01:29:59;3.65;;;3.17;;
39222;SDS011;24936;46.328;11.026;2024-03-02T01:32:25;4.57;;;2.92;;
39222;SDS011;24936;46.328;11.026;2024-03-02T01:34:50;4.45;;;3.55;;
39222;SDS011;24936;46.328;11.026;2024-03-02T01:37:16;5.28;;;3.00;;
39222;SDS011;24936;46.328;11.026;2024-03-02T01:39:41;2.60;;;2.08;;
39222;SDS011;24936;46.328;11.026;2024-03-02T01:42:07;6.07;;;2.88;;
39222;SDS011;24936;46.328;11.026;2024-03-02T01:44:32;3.17;;;2.40;;
39222;SDS011;24936;46.328;11.026;2024-03-02T01:46:57;3.95;;;2.90;;
39222;SDS011;24936;46.328;11.026;2024-03-02T01:49:23;3.20;;;2.30;;
39222;SDS011;24936;46.328;11.026;2024-03-02T01:51:48;3.83;;;2.13;;
39222;SDS011;24936;46.328;11.026;2024-03-02T01:54:14;2.58;;;2.28;;
39222;SDS011;24936;46.328;11.026;2024-03-02T01:56:39;4.85;;;2.78;;
39222;SDS011;24936;46.328;11.026;2024-03-02T01:59:05;4.00;;;2.08;;
39222;SDS011;24936;46.328;11.026;2024-03-02T02:01:31;2.78;;;2.28;;
39222;SDS011;24936;46.328;11.026;2024-03-02T02:03:56;4.30;;;2.90;;
39222;SDS011;24936;46.328;11.026;2024-03-02T02:06:22;13.70;;;2.72;;
39222;SDS011;24936;46.328;11.026;2024-03-02T02:08:47;5.60;;;3.13;;
39222;SDS011;24936;46.328;11.026;2024-03-02T02:11:16;4.20;;;2.90;;
39222;SDS011;24936;46.328;11.026;2024-03-02T02:13:42;7.10;;;4.30;;
39222;SDS011;24936;46.328;11.026;2024-03-02T02:16:07;9.20;;;4.40;;
39222;SDS011;24936;46.328;11.026;2024-03-02T02:18:33;8.27;;;4.32;;
39222;SDS011;24936;46.328;11.026;2024-03-02T02:20:59;6.18;;;4.25;;
39222;SDS011;24936;46.328;11.026;2024-03-02T02:23:25;6.47;;;3.90;;
39222;SDS011;24936;46.328;11.026;2024-03-02T02:25:50;11.48;;;4.25;;
39222;SDS011;24936;46.328;11.026;2024-03-02T02:28:15;7.38;;;4.47;;
39222;SDS011;24936;46.328;11.026;2024-03-02T02:30:41;8.15;;;4.65;;
39222;SDS011;24936;46.328;11.026;2024-03-02T02:33:07;10.43;;;4.07;;
39222;SDS011;24936;46.328;11.026;2024-03-02T02:35:33;8.90;;;4.38;;
39222;SDS011;24936;46.328;11.026;2024-03-02T02:37:58;7.10;;;4.22;;
39222;SDS011;24936;46.328;11.026;2024-03-02T02:40:24;6.63;;;4.68;;
39222;SDS011;24936;46.328;11.026;2024-03-02T02:42:49;9.50;;;4.40;;
39222;SDS011;24936;46.328;11.026;2024-03-02T02:45:17;4.28;;;3.83;;
39222;SDS011;24936;46.328;11.026;2024-03-02T02:47:43;8.23;;;4.05;;
39222;SDS011;24936;46.328;11.026;2024-03-02T02:50:09;9.93;;;3.90;;
39222;SDS011;24936;46.328;11.026;2024-03-02T02:52:36;4.05;;;3.30;;
39222;SDS011;24936;46.328;11.026;2024-03-02T02:55:04;5.72;;;3.60;;
39222;SDS011;24936;46.328;11.026;2024-03-02T02:57:32;4.43;;;3.60;;
39222;SDS011;24936;46.328;11.026;2024-03-02T03:00:01;5.85;;;3.30;;
39222;SDS011;24936;46.328;11.026;2024-03-02T03:02:35;5.85;;;3.50;;
39222;SDS011;24936;46.328;11.026;2024-03-02T03:05:01;5.20;;;4.68;;
39222;SDS011;24936;46.328;11.026;2024-03-02T03:07:26;5.10;;;3.65;;
39222;SDS011;24936;46.328;11.026;2024-03-02T03:09:52;5.45;;;4.25;;
39222;SDS011;24936;46.328;11.026;2024-03-02T03:12:18;8.10;;;4.20;;
39222;SDS011;24936;46.328;11.026;2024-03-02T03:14:43;4.40;;;3.95;;
39222;SDS011;24936;46.328;11.026;2024-03-02T03:17:09;6.53;;;4.10;;
39222;SDS011;24936;46.328;11.026;2024-03-02T03:19:34;7.93;;;3.28;;
39222;SDS011;24936;46.328;11.026;2024-03-02T03:22:00;6.07;;;4.22;;
39222;SDS011;24936;46.328;11.026;2024-03-02T03:24:26;4.85;;;4.43;;
39222;SDS011;24936;46.328;11.026;2024-03-02T03:26:51;5.85;;;4.65;;
39222;SDS011;24936;46.328;11.026;2024-03-02T03:29:17;12.68;;;4.43;;
39222;SDS011;24936;46.328;11.026;2024-03-02T03:31:42;4.93;;;4.15;;
39222;SDS011;24936;46.328;11.026;2024-03-02T03:34:08;8.45;;;4.50;;
39222;SDS011;24936;46.328;11.026;2024-03-02T03:36:33;10.35;;;4.35;;
39222;SDS011;24936;46.328;11.026;2024-03-02T03:38:58;8.75;;;4.78;;
39222;SDS011;24936;46.328;11.026;2024-03-02T03:41:24;6.03;;;4.55;;
39222;SDS011;24936;46.328;11.026;2024-03-02T03:43:49;8.32;;;4.75;;
39222;SDS011;24936;46.328;11.026;2024-03-02T03:46:15;6.28;;;4.35;;
39222;SDS011;24936;46.328;11.026;2024-03-02T03:48:40;4.00;;;3.60;;
39222;SDS011;24936;46.328;11.026;2024-03-02T03:51:07;4.80;;;3.17;;
39222;SDS011;24936;46.328;11.026;2024-03-02T03:53:32;7.40;;;3.78;;
39222;SDS011;24936;46.328;11.026;2024-03-02T03:55:57;5.75;;;3.45;;
39222;SDS011;24936;46.328;11.026;2024-03-02T03:58:23;6.32;;;3.75;;
39222;SDS011;24936;46.328;11.026;2024-03-02T04:00:48;4.50;;;3.05;;
39222;SDS011;24936;46.328;11.026;2024-03-02T04:03:13;3.90;;;2.55;;
39222;SDS011;24936;46.328;11.026;2024-03-02T04:05:39;4.53;;;2.97;;
39222;SDS011;24936;46.328;11.026;2024-03-02T04:08:04;4.03;;;2.45;;
39222;SDS011;24936;46.328;11.026;2024-03-02T04:10:30;5.57;;;2.58;;
39222;SDS011;24936;46.328;11.026;2024-03-02T04:12:55;7.82;;;3.00;;
39222;SDS011;24936;46.328;11.026;2024-03-02T04:15:21;2.78;;;2.53;;
39222;SDS011;24936;46.328;11.026;2024-03-02T04:17:48;4.00;;;3.53;;
39222;SDS011;24936;46.328;11.026;2024-03-02T04:20:13;5.68;;;3.40;;
39222;SDS011;24936;46.328;11.026;2024-03-02T04:22:39;5.70;;;4.25;;
39222;SDS011;24936;46.328;11.026;2024-03-02T04:25:04;6.32;;;4.70;;
39222;SDS011;24936;46.328;11.026;2024-03-02T04:27:30;7.97;;;4.43;;
39222;SDS011;24936;46.328;11.026;2024-03-02T04:29:57;8.82;;;5.00;;
39222;SDS011;24936;46.328;11.026;2024-03-02T04:32:22;8.57;;;5.40;;
39222;SDS011;24936;46.328;11.026;2024-03-02T04:34:48;6.35;;;5.53;;
39222;SDS011;24936;46.328;11.026;2024-03-02T04:37:13;6.60;;;5.03;;
39222;SDS011;24936;46.328;11.026;2024-03-02T04:39:39;4.25;;;3.78;;
39222;SDS011;24936;46.328;11.026;2024-03-02T04:42:05;5.35;;;4.40;;
39222;SDS011;24936;46.328;11.026;2024-03-02T04:44:30;7.32;;;4.32;;
39222;SDS011;24936;46.328;11.026;2024-03-02T04:46:56;4.80;;;3.80;;
39222;SDS011;24936;46.328;11.026;2024-03-02T04:49:21;9.10;;;3.10;;
39222;SDS011;24936;46.328;11.026;2024-03-02T04:51:47;7.15;;;4.10;;
39222;SDS011;24936;46.328;11.026;2024-03-02T04:54:12;3.13;;;2.70;;
39222;SDS011;24936;46.328;11.026;2024-03-02T04:56:39;5.60;;;3.55;;
39222;SDS011;24936;46.328;11.026;2024-03-02T04:59:04;4.03;;;3.45;;
39222;SDS011;24936;46.328;11.026;2024-03-02T05:01:29;7.07;;;3.13;;
39222;SDS011;24936;46.328;11.026;2024-03-02T05:03:55;6.03;;;2.47;;
39222;SDS011;24936;46.328;11.026;2024-03-02T05:06:21;4.63;;;3.08;;
39222;SDS011;24936;46.328;11.026;2024-03-02T05:08:47;4.80;;;2.75;;
39222;SDS011;24936;46.328;11.026;2024-03-02T05:11:13;4.70;;;2.30;;
39222;SDS011;24936;46.328;11.026;2024-03-02T05:13:57;3.38;;;3.00;;
39222;SDS011;24936;46.328;11.026;2024-03-02T05:16:22;4.20;;;2.33;;
39222;SDS011;24936;46.328;11.026;2024-03-02T05:18:47;3.38;;;2.67;;
39222;SDS011;24936;46.328;11.026;2024-03-02T05:21:13;4.55;;;3.03;;
39222;SDS011;24936;46.328;11.026;2024-03-02T05:23:38;4.05;;;2.97;;
39222;SDS011;24936;46.328;11.026;2024-03-02T05:26:04;4.55;;;2.60;;
39222;SDS011;24936;46.328;11.026;2024-03-02T05:28:29;3.95;;;2.63;;
39222;SDS011;24936;46.328;11.026;2024-03-02T05:30:54;5.55;;;2.72;;
39222;SDS011;24936;46.328;11.026;2024-03-02T05:33:21;2.95;;;2.67;;
39222;SDS011;24936;46.328;11.026;2024-03-02T05:35:47;8.25;;;2.70;;
39222;SDS011;24936;46.328;11.026;2024-03-02T05:38:15;2.72;;;2.53;;
39222;SDS011;24936;46.328;11.026;2024-03-02T05:40:40;5.88;;;2.53;;
39222;SDS011;24936;46.328;11.026;2024-03-02T05:43:06;4.53;;;3.60;;
39222;SDS011;24936;46.328;11.026;2024-03-02T05:45:31;3.85;;;2.85;;
39222;SDS011;24936;46.328;11.026;2024-03-02T05:47:56;2.50;;;2.30;;
39222;SDS011;24936;46.328;11.026;2024-03-02T05:50:22;3.53;;;3.08;;
39222;SDS011;24936;46.328;11.026;2024-03-02T05:52:47;8.65;;;2.53;;
39222;SDS011;24936;46.328;11.026;2024-03-02T05:55:13;2.42;;;2.22;;
39222;SDS011;24936;46.328;11.026;2024-03-02T05:57:38;3.03;;;2.67;;
39222;SDS011;24936;46.328;11.026;2024-03-02T06:00:09;4.72;;;2.88;;
39222;SDS011;24936;46.328;11.026;2024-03-02T06:02:38;6.93;;;2.85;;
39222;SDS011;24936;46.328;11.026;2024-03-02T06:05:04;2.50;;;2.28;;
39222;SDS011;24936;46.328;11.026;2024-03-02T06:07:32;2.25;;;2.05;;
39222;SDS011;24936;46.328;11.026;2024-03-02T06:09:57;4.03;;;3.08;;
39222;SDS011;24936;46.328;11.026;2024-03-02T06:12:23;2.92;;;2.60;;
39222;SDS011;24936;46.328;11.026;2024-03-02T06:14:49;3.90;;;3.00;;
39222;SDS011;24936;46.328;11.026;2024-03-02T06:17:14;3.50;;;2.75;;
39222;SDS011;24936;46.328;11.026;2024-03-02T06:19:40;7.80;;;3.88;;
39222;SDS011;24936;46.328;11.026;2024-03-02T06:22:05;6.97;;;4.22;;
39222;SDS011;24936;46.328;11.026;2024-03-02T06:24:31;11.75;;;4.18;;
39222;SDS011;24936;46.328;11.026;2024-03-02T06:26:56;4.55;;;3.65;;
39222;SDS011;24936;46.328;11.026;2024-03-02T06:29:22;4.05;;;3.53;;
39222;SDS011;24936;46.328;11.026;2024-03-02T06:31:47;5.80;;;4.40;;
39222;SDS011;24936;46.328;11.026;2024-03-02T06:34:13;5.15;;;4.57;;
39222;SDS011;24936;46.328;11.026;2024-03-02T06:36:38;4.50;;;2.85;;
39222;SDS011;24936;46.328;11.026;2024-03-02T06:39:05;3.75;;;3.35;;
39222;SDS011;24936;46.328;11.026;2024-03-02T06:41:31;11.05;;;5.45;;
39222;SDS011;24936;46.328;11.026;2024-03-02T06:43:56;8.60;;;4.40;;
39222;SDS011;24936;46.328;11.026;2024-03-02T06:46:25;6.03;;;5.45;;
39222;SDS011;24936;46.328;11.026;2024-03-02T06:48:50;5.07;;;4.57;;
39222;SDS011;24936;46.328;11.026;2024-03-02T06:51:16;4.80;;;4.32;;
39222;SDS011;24936;46.328;11.026;2024-03-02T06:53:41;7.75;;;4.32;;
39222;SDS011;24936;46.328;11.026;2024-03-02T06:56:07;4.03;;;3.22;;
39222;SDS011;24936;46.328;11.026;2024-03-02T06:58:36;5.60;;;3.55;;
39222;SDS011;24936;46.328;11.026;2024-03-02T07:01:01;4.47;;;3.65;;
39222;SDS011;24936;46.328;11.026;2024-03-02T07:03:27;7.43;;;4.13;;
39222;SDS011;24936;46.328;11.026;2024-03-02T07:05:52;5.32;;;4.30;;
39222;SDS011;24936;46.328;11.026;2024-03-02T07:08:17;5.20;;;4.25;;
39222;SDS011;24936;46.328;11.026;2024-03-02T07:10:43;5.40;;;4.90;;
39222;SDS011;24936;46.328;11.026;2024-03-02T07:13:08;5.65;;;5.13;;
39222;SDS011;24936;46.328;11.026;2024-03-02T07:15:33;12.68;;;6.20;;
39222;SDS011;24936;46.328;11.026;2024-03-02T07:18:15;5.10;;;4.70;;
39222;SDS011;24936;46.328;11.026;2024-03-02T07:20:40;7.10;;;4.65;;
39222;SDS011;24936;46.328;11.026;2024-03-02T07:23:05;6.82;;;5.18;;
39222;SDS011;24936;46.328;11.026;2024-03-02T07:25:31;5.75;;;5.18;;
39222;SDS011;24936;46.328;11.026;2024-03-02T07:27:56;6.88;;;5.88;;
39222;SDS011;24936;46.328;11.026;2024-03-02T07:30:22;7.72;;;5.40;;
39222;SDS011;24936;46.328;11.026;2024-03-02T07:32:49;10.70;;;5.57;;
39222;SDS011;24936;46.328;11.026;2024-03-02T07:35:15;8.75;;;6.50;;
39222;SDS011;24936;46.328;11.026;2024-03-02T07:37:41;6.53;;;4.75;;
39222;SDS011;24936;46.328;11.026;2024-03-02T07:40:07;5.82;;;5.05;;
39222;SDS011;24936;46.328;11.026;2024-03-02T07:42:39;8.75;;;5.47;;
39222;SDS011;24936;46.328;11.026;2024-03-02T07:45:06;15.57;;;10.85;;
39222;SDS011;24936;46.328;11.026;2024-03-02T07:47:32;16.77;;;10.82;;
39222;SDS011;24936;46.328;11.026;2024-03-02T07:50:01;15.52;;;7.68;;
39222;SDS011;24936;46.328;11.026;2024-03-02T07:52:26;10.27;;;6.35;;
39222;SDS011;24936;46.328;11.026;2024-03-02T07:54:52;12.52;;;9.82;;
39222;SDS011;24936;46.328;11.026;2024-03-02T07:57:17;8.27;;;5.03;;
39222;SDS011;24936;46.328;11.026;2024-03-02T07:59:43;9.45;;;6.07;;
39222;SDS011;24936;46.328;11.026;2024-03-02T08:02:08;14.50;;;7.57;;
39222;SDS011;24936;46.328;11.026;2024-03-02T08:04:34;16.60;;;9.45;;
39222;SDS011;24936;46.328;11.026;2024-03-02T08:06:59;4.93;;;3.95;;
39222;SDS011;24936;46.328;11.026;2024-03-02T08:09:25;8.40;;;5.80;;
39222;SDS011;24936;46.328;11.026;2024-03-02T08:11:51;5.28;;;3.83;;
39222;SDS011;24936;46.328;11.026;2024-03-02T08:14:16;8.23;;;5.40;;
39222;SDS011;24936;46.328;11.026;2024-03-02T08:16:41;8.65;;;5.60;;
39222;SDS011;24936;46.328;11.026;2024-03-02T08:19:07;12.85;;;5.32;;
39222;SDS011;24936;46.328;11.026;2024-03-02T08:21:33;8.32;;;6.15;;
39222;SDS011;24936;46.328;11.026;2024-03-02T08:24:00;11.18;;;7.72;;
39222;SDS011;24936;46.328;11.026;2024-03-02T08:26:27;9.20;;;6.80;;
39222;SDS011;24936;46.328;11.026;2024-03-02T08:28:54;14.02;;;9.55;;
39222;SDS011;24936;46.328;11.026;2024-03-02T08:31:20;11.63;;;9.95;;
39222;SDS011;24936;46.328;11.026;2024-03-02T08:33:45;13.30;;;7.47;;
39222;SDS011;24936;46.328;11.026;2024-03-02T08:36:11;11.30;;;7.60;;
39222;SDS011;24936;46.328;11.026;2024-03-02T08:38:37;16.92;;;10.88;;
39222;SDS011;24936;46.328;11.026;2024-03-02T08:41:02;10.45;;;7.28;;
39222;SDS011;24936;46.328;11.026;2024-03-02T08:43:28;13.10;;;8.90;;
39222;SDS011;24936;46.328;11.026;2024-03-02T08:45:54;16.75;;;8.90;;
39222;SDS011;24936;46.328;11.026;2024-03-02T08:48:19;10.40;;;6.65;;
39222;SDS011;24936;46.328;11.026;2024-03-02T08:50:46;11.23;;;5.72;;
39222;SDS011;24936;46.328;11.026;2024-03-02T08:53:11;9.30;;;6.30;;
39222;SDS011;24936;46.328;11.026;2024-03-02T08:55:37;7.93;;;6.07;;
39222;SDS011;24936;46.328;11.026;2024-03-02T08:58:02;6.57;;;4.85;;
39222;SDS011;24936;46.328;11.026;2024-03-02T09:00:28;5.43;;;4.35;;
39222;SDS011;24936;46.328;11.026;2024-03-02T09:02:53;7.32;;;5.43;;
39222;SDS011;24936;46.328;11.026;2024-03-02T09:05:19;9.35;;;7.13;;
39222;SDS011;24936;46.328;11.026;2024-03-02T09:07:44;9.30;;;7.00;;
39222;SDS011;24936;46.328;11.026;2024-03-02T09:10:10;6.40;;;5.80;;
39222;SDS011;24936;46.328;11.026;2024-03-02T09:12:35;6.45;;;5.30;;
39222;SDS011;24936;46.328;11.026;2024-03-02T09:15:02;9.18;;;6.10;;
39222;SDS011;24936;46.328;11.026;2024-03-02T09:17:28;5.70;;;5.13;;
39222;SDS011;24936;46.328;11.026;2024-03-02T09:19:55;8.82;;;5.97;;
39222;SDS011;24936;46.328;11.026;2024-03-02T09:22:20;6.90;;;5.13;;
39222;SDS011;24936;46.328;11.026;2024-03-02T09:24:46;8.60;;;5.40;;
39222;SDS011;24936;46.328;11.026;2024-03-02T09:27:12;8.25;;;6.03;;
39222;SDS011;24936;46.328;11.026;2024-03-02T09:29:37;7.63;;;4.43;;
39222;SDS011;24936;46.328;11.026;2024-03-02T09:32:03;26.65;;;23.88;;
39222;SDS011;24936;46.328;11.026;2024-03-02T09:34:30;4.70;;;4.15;;
39222;SDS011;24936;46.328;11.026;2024-03-02T09:36:56;8.43;;;4.70;;
39222;SDS011;24936;46.328;11.026;2024-03-02T09:39:22;8.82;;;5.85;;
39222;SDS011;24936;46.328;11.026;2024-03-02T09:41:48;8.07;;;5.78;;
39222;SDS011;24936;46.328;11.026;2024-03-02T09:44:14;10.93;;;5.22;;
39222;SDS011;24936;46.328;11.026;2024-03-02T09:46:39;6.00;;;3.30;;
39222;SDS011;24936;46.328;11.026;2024-03-02T09:49:05;7.10;;;4.15;;
39222;SDS011;24936;46.328;11.026;2024-03-02T09:51:31;5.22;;;4.65;;
39222;SDS011;24936;46.328;11.026;2024-03-02T09:53:57;5.32;;;3.97;;
39222;SDS011;24936;46.328;11.026;2024-03-02T09:56:22;4.38;;;3.88;;
39222;SDS011;24936;46.328;11.026;2024-03-02T09:58:48;3.92;;;3.05;;
39222;SDS011;24936;46.328;11.026;2024-03-02T10:01:13;5.47;;;3.25;;
39222;SDS011;24936;46.328;11.026;2024-03-02T10:03:39;3.67;;;2.60;;
39222;SDS011;24936;46.328;11.026;2024-03-02T10:06:20;6.93;;;3.90;;
39222;SDS011;24936;46.328;11.026;2024-03-02T10:08:50;11.90;;;5.38;;
39222;SDS011;24936;46.328;11.026;2024-03-02T10:14:04;4.05;;;1.73;;
39222;SDS011;24936;46.328;11.026;2024-03-02T10:16:34;3.40;;;2.60;;
39222;SDS011;24936;46.328;11.026;2024-03-02T10:19:14;2.35;;;2.08;;
39222;SDS011;24936;46.328;11.026;2024-03-02T10:21:40;3.30;;;2.20;;
39222;SDS011;24936;46.328;11.026;2024-03-02T10:24:07;3.95;;;3.25;;
39222;SDS011;24936;46.328;11.026;2024-03-02T10:26:33;2.30;;;2.10;;
39222;SDS011;24936;46.328;11.026;2024-03-02T10:28:58;3.70;;;2.15;;
39222;SDS011;24936;46.328;11.026;2024-03-02T10:31:24;2.47;;;2.22;;
39222;SDS011;24936;46.328;11.026;2024-03-02T10:33:54;2.67;;;2.17;;
39222;SDS011;24936;46.328;11.026;2024-03-02T10:36:20;2.33;;;1.83;;
39222;SDS011;24936;46.328;11.026;2024-03-02T10:38:45;2.58;;;2.38;;
39222;SDS011;24936;46.328;11.026;2024-03-02T10:41:16;2.05;;;1.95;;
39222;SDS011;24936;46.328;11.026;2024-03-02T10:43:43;2.45;;;2.22;;
39222;SDS011;24936;46.328;11.026;2024-03-02T10:46:13;3.80;;;2.58;;
39222;SDS011;24936;46.328;11.026;2024-03-02T10:48:41;2.28;;;2.00;;
39222;SDS011;24936;46.328;11.026;2024-03-02T10:51:11;2.15;;;1.75;;
39222;SDS011;24936;46.328;11.026;2024-03-02T10:53:36;1.55;;;1.45;;
39222;SDS011;24936;46.328;11.026;2024-03-02T10:56:02;2.47;;;2.00;;
39222;SDS011;24936;46.328;11.026;2024-03-02T10:58:32;4.43;;;3.08;;
39222;SDS011;24936;46.328;11.026;2024-03-02T11:01:02;3.13;;;2.60;;
39222;SDS011;24936;46.328;11.026;2024-03-02T11:03:33;2.83;;;2.35;;
39222;SDS011;24936;46.328;11.026;2024-03-02T11:06:00;3.13;;;1.80;;
39222;SDS011;24936;46.328;11.026;2024-03-02T11:08:31;5.10;;;1.63;;
39222;SDS011;24936;46.328;11.026;2024-03-02T11:10:58;2.35;;;2.15;;
39222;SDS011;24936;46.328;11.026;2024-03-02T11:13:31;6.68;;;1.92;;
39222;SDS011;24936;46.328;11.026;2024-03-02T11:16:12;2.85;;;1.92;;
39222;SDS011;24936;46.328;11.026;2024-03-02T11:18:48;2.75;;;1.35;;
39222;SDS011;24936;46.328;11.026;2024-03-02T11:21:14;1.60;;;1.50;;
39222;SDS011;24936;46.328;11.026;2024-03-02T11:23:41;3.88;;;1.85;;
39222;SDS011;24936;46.328;11.026;2024-03-02T11:26:19;6.32;;;2.40;;
39222;SDS011;24936;46.328;11.026;2024-03-02T11:28:50;2.92;;;2.70;;
39222;SDS011;24936;46.328;11.026;2024-03-02T11:31:16;5.07;;;1.90;;
39222;SDS011;24936;46.328;11.026;2024-03-02T11:33:41;4.72;;;2.53;;
39222;SDS011;24936;46.328;11.026;2024-03-02T11:36:08;1.70;;;1.60;;
39222;SDS011;24936;46.328;11.026;2024-03-02T11:38:34;5.13;;;2.88;;
39222;SDS011;24936;46.328;11.026;2024-03-02T11:41:01;2.75;;;2.03;;
39222;SDS011;24936;46.328;11.026;2024-03-02T11:43:39;3.17;;;2.20;;
39222;SDS011;24936;46.328;11.026;2024-03-02T11:46:07;7.85;;;1.90;;
39222;SDS011;24936;46.328;11.026;2024-03-02T11:48:32;5.00;;;2.17;;
39222;SDS011;24936;46.328;11.026;2024-03-02T11:51:00;2.30;;;2.10;;
39222;SDS011;24936;46.328;11.026;2024-03-02T11:53:26;2.63;;;2.22;;
39222;SDS011;24936;46.328;11.026;2024-03-02T11:55:56;6.72;;;2.35;;
39222;SDS011;24936;46.328;11.026;2024-03-02T11:58:23;3.65;;;2.65;;
39222;SDS011;24936;46.328;11.026;2024-03-02T12:00:53;4.45;;;2.00;;
39222;SDS011;24936;46.328;11.026;2024-03-02T12:03:20;9.38;;;3.72;;
39222;SDS011;24936;46.328;11.026;2024-03-02T12:05:50;5.85;;;2.72;;
39222;SDS011;24936;46.328;11.026;2024-03-02T12:08:18;3.97;;;2.83;;
39222;SDS011;24936;46.328;11.026;2024-03-02T12:10:55;2.67;;;2.40;;
39222;SDS011;24936;46.328;11.026;2024-03-02T12:13:25;2.10;;;1.90;;
39222;SDS011;24936;46.328;11.026;2024-03-02T12:15:53;3.90;;;2.78;;
39222;SDS011;24936;46.328;11.026;2024-03-02T12:18:20;3.97;;;2.30;;
39222;SDS011;24936;46.328;11.026;2024-03-02T12:20:45;5.38;;;2.10;;
39222;SDS011;24936;46.328;11.026;2024-03-02T12:23:13;5.57;;;3.63;;
39222;SDS011;24936;46.328;11.026;2024-03-02T12:25:39;4.53;;;2.53;;
39222;SDS011;24936;46.328;11.026;2024-03-02T12:28:05;2.47;;;2.08;;
39222;SDS011;24936;46.328;11.026;2024-03-02T12:30:31;4.78;;;2.88;;
39222;SDS011;24936;46.328;11.026;2024-03-02T12:33:00;2.83;;;2.10;;
39222;SDS011;24936;46.328;11.026;2024-03-02T12:35:25;3.13;;;2.03;;
39222;SDS011;24936;46.328;11.026;2024-03-02T12:37:51;2.08;;;1.88;;
39222;SDS011;24936;46.328;11.026;2024-03-02T12:40:18;4.50;;;2.50;;
39222;SDS011;24936;46.328;11.026;2024-03-02T12:42:44;6.85;;;2.13;;
39222;SDS011;24936;46.328;11.026;2024-03-02T12:45:11;3.67;;;1.65;;
39222;SDS011;24936;46.328;11.026;2024-03-02T12:47:38;1.58;;;1.40;;
39222;SDS011;24936;46.328;11.026;2024-03-02T12:50:05;1.60;;;1.50;;
39222;SDS011;24936;46.328;11.026;2024-03-02T12:52:31;2.03;;;1.40;;
39222;SDS011;24936;46.328;11.026;2024-03-02T12:55:00;5.82;;;2.03;;
39222;SDS011;24936;46.328;11.026;2024-03-02T12:57:29;8.15;;;1.88;;
39222;SDS011;24936;46.328;11.026;2024-03-02T13:00:02;2.97;;;2.45;;
39222;SDS011;24936;46.328;11.026;2024-03-02T13:02:36;5.13;;;1.63;;
39222;SDS011;24936;46.328;11.026;2024-03-02T13:05:04;3.83;;;1.45;;
39222;SDS011;24936;46.328;11.026;2024-03-02T13:07:31;11.27;;;2.00;;
39222;SDS011;24936;46.328;11.026;2024-03-02T13:09:58;3.35;;;1.48;;
39222;SDS011;24936;46.328;11.026;2024-03-02T13:12:24;7.43;;;1.50;;
39222;SDS011;24936;46.328;11.026;2024-03-02T13:14:53;3.17;;;1.20;;
39222;SDS011;24936;46.328;11.026;2024-03-02T13:17:19;6.00;;;2.00;;
39222;SDS011;24936;46.328;11.026;2024-03-02T13:19:58;2.85;;;1.88;;
39222;SDS011;24936;46.328;11.026;2024-03-02T13:22:24;6.65;;;1.73;;
39222;SDS011;24936;46.328;11.026;2024-03-02T13:24:51;3.17;;;1.92;;
39222;SDS011;24936;46.328;11.026;2024-03-02T13:27:18;2.47;;;1.45;;
39222;SDS011;24936;46.328;11.026;2024-03-02T13:29:47;3.80;;;2.28;;
39222;SDS011;24936;46.328;11.026;2024-03-02T13:32:13;3.53;;;1.25;;
39222;SDS011;24936;46.328;11.026;2024-03-02T13:34:39;2.33;;;1.30;;
39222;SDS011;24936;46.328;11.026;2024-03-02T13:37:05;7.25;;;1.70;;
39222;SDS011;24936;46.328;11.026;2024-03-02T13:39:31;5.63;;;1.40;;
39222;SDS011;24936;46.328;11.026;2024-03-02T13:41:59;4.20;;;1.60;;
39222;SDS011;24936;46.328;11.026;2024-03-02T13:44:31;2.67;;;1.63;;
39222;SDS011;24936;46.328;11.026;2024-03-02T13:46:56;3.10;;;2.10;;
39222;SDS011;24936;46.328;11.026;2024-03-02T13:49:23;7.88;;;2.17;;
39222;SDS011;24936;46.328;11.026;2024-03-02T13:51:48;6.10;;;3.47;;
39222;SDS011;24936;46.328;11.026;2024-03-02T13:54:14;4.35;;;3.90;;
39222;SDS011;24936;46.328;11.026;2024-03-02T13:56:39;9.38;;;2.28;;
39222;SDS011;24936;46.328;11.026;2024-03-02T13:59:06;1.63;;;1.30;;
39222;SDS011;24936;46.328;11.026;2024-03-02T14:01:32;1.67;;;1.58;;
39222;SDS011;24936;46.328;11.026;2024-03-02T14:03:58;2.17;;;1.58;;
39222;SDS011;24936;46.328;11.026;2024-03-02T14:06:24;6.97;;;1.33;;
39222;SDS011;24936;46.328;11.026;2024-03-02T14:08:52;1.50;;;1.30;;
39222;SDS011;24936;46.328;11.026;2024-03-02T14:11:17;4.20;;;1.20;;
39222;SDS011;24936;46.328;11.026;2024-03-02T14:13:43;3.63;;;1.20;;
39222;SDS011;24936;46.328;11.026;2024-03-02T14:16:12;0.80;;;0.77;;
39222;SDS011;24936;46.328;11.026;2024-03-02T14:18:37;2.65;;;1.20;;
39222;SDS011;24936;46.328;11.026;2024-03-02T14:21:03;5.32;;;1.67;;
39222;SDS011;24936;46.328;11.026;2024-03-02T14:23:28;1.67;;;1.33;;
39222;SDS011;24936;46.328;11.026;2024-03-02T14:25:54;3.47;;;0.95;;
39222;SDS011;24936;46.328;11.026;2024-03-02T14:28:20;4.47;;;1.33;;
39222;SDS011;24936;46.328;11.026;2024-03-02T14:30:45;2.25;;;0.90;;
39222;SDS011;24936;46.328;11.026;2024-03-02T14:33:11;1.70;;;0.95;;